Date,TemperatureHighF,TemperatureAvgF,TemperatureLowF,DewpointHighF,DewpointAvgF,DewpointLowF,HumidityHigh,HumidityAvg,HumidityLow,PressureMaxIn,PressureMinIn,WindSpeedMaxMPH,WindSpeedAvgMPH,GustSpeedMaxMPH,PrecipitationSumIn
2013-2-1,60,44,36,15,5,-2,21,20,17,30.33,30.24,0,0,0,0.00
2013-2-2,50,42,34,12,5,-2,33,22,19,30.33,30.24,18,1,18,0.00
2013-2-3,43,37,33,10,2,-4,32,23,19,30.27,30.15,26,12,26,0.00
2013-2-4,55,42,36,12,4,-2,22,20,17,30.21,30.15,18,6,18,0.00
2013-2-5,50,41,32,24,6,-4,54,24,19,30.18,30.06,20,10,20,0.00
2013-2-6,42,34,22,22,1,-11,53,24,20,30.18,30.03,19,5,19,0.00
2013-2-7,51,35,21,10,1,-12,35,23,19,30.56,29.94,21,8,21,0.00
2013-2-8,30,22,18,2,-4,-9,33,30,26,29.94,29.80,6,0,6,0.00
2013-2-9,23,19,14,-6,-10,-16,30,26,22,30.06,29.85,0,0,0,0.00
2013-2-10,42,25,18,5,-9,-13,32,22,19,30.06,29.97,24,5,24,0.00
2013-2-11,43,24,16,5,-9,-15,23,22,19,30.21,30.03,21,4,21,0.00
2013-2-12,47,30,22,7,-5,-11,22,21,19,30.30,30.21,15,7,15,0.00
2013-2-13,52,38,30,11,0,-6,21,20,18,30.30,30.21,17,4,17,0.00
2013-2-14,50,39,33,9,1,-4,21,20,19,30.30,30.21,28,8,28,0.00
2013-2-15,50,40,34,10,2,-3,22,20,19,30.36,30.27,37,19,37,0.00
2013-2-16,52,41,33,11,3,-3,21,20,19,30.36,30.18,31,12,31,0.00
2013-2-17,39,34,29,2,-3,-7,22,20,19,30.18,30.03,28,17,28,0.00
2013-2-18,54,40,30,11,2,-6,22,20,18,30.12,29.97,21,6,21,0.00
2013-2-19,32,25,15,1,-6,-14,33,26,20,30.00,29.68,24,11,24,0.00
2013-2-20,21,17,13,-6,-11,-15,30,28,26,30.00,29.68,10,1,10,0.00
2013-2-21,29,22,17,3,-4,-10,33,31,28,30.12,29.94,0,0,0,0.00
2013-2-22,44,29,18,6,-4,-10,33,23,19,30.21,30.12,15,3,15,0.00
2013-2-23,34,30,26,8,0,-8,35,28,20,30.21,30.00,46,16,46,0.00
2013-2-24,37,28,17,2,-6,-14,32,23,19,30.24,30.06,17,2,17,0.00
2013-2-25,42,32,26,5,-4,-9,21,20,19,30.24,30.12,35,15,35,0.00
2013-2-26,46,33,23,7,-4,-10,22,20,19,30.24,30.12,38,16,38,0.00
2013-2-27,47,34,26,7,-2,-9,22,20,19,30.36,30.24,20,4,20,0.00
2013-2-28,54,39,30,12,2,-6,22,20,18,30.45,30.36,17,6,17,0.00